createdAt,value
2023-04-02T00:02:21.342Z,0.50
2023-04-02T00:05:30.257Z,0.60
2023-04-02T00:08:10.401Z,0.40
2023-04-02T00:13:12.111Z,0.40
2023-04-02T00:15:40.464Z,0.30
2023-04-02T00:18:07.567Z,0.40
2023-04-02T00:20:38.642Z,0.40
2023-04-02T00:23:06.711Z,0.40
2023-04-02T00:25:43.006Z,0.65
2023-04-02T00:28:16.930Z,0.38
2023-04-02T00:30:48.248Z,0.40
2023-04-02T00:33:18.618Z,0.38
2023-04-02T00:35:46.067Z,0.50
2023-04-02T00:38:32.240Z,0.30
2023-04-02T00:41:03.200Z,0.40
2023-04-02T00:43:34.515Z,0.50
2023-04-02T00:46:05.530Z,0.50
2023-04-02T00:48:31.989Z,0.50
2023-04-02T00:51:01.578Z,0.32
2023-04-02T00:53:29.668Z,0.43
2023-04-02T00:55:58.348Z,0.45
2023-04-02T00:58:36.644Z,0.30
2023-04-02T01:01:04.634Z,0.55
2023-04-02T01:03:37.248Z,0.80
2023-04-02T01:06:16.132Z,0.30
2023-04-02T01:09:13.722Z,0.77
2023-04-02T01:12:02.003Z,0.40
2023-04-02T01:14:50.076Z,0.60
2023-04-02T01:17:19.935Z,0.60
2023-04-02T01:20:07.869Z,0.43
2023-04-02T01:22:48.098Z,0.43
2023-04-02T01:25:21.640Z,0.70
2023-04-02T01:27:55.624Z,0.40
2023-04-02T01:30:22.716Z,0.60
2023-04-02T01:32:49.759Z,0.55
2023-04-02T01:35:17.065Z,0.52
2023-04-02T01:38:08.350Z,0.30
2023-04-02T01:40:43.684Z,0.75
2023-04-02T01:43:23.141Z,0.50
2023-04-02T01:45:50.124Z,0.52
2023-04-02T01:48:24.708Z,0.60
2023-04-02T01:50:55.409Z,0.57
2023-04-02T01:53:25.681Z,0.38
2023-04-02T01:55:56.025Z,0.30
2023-04-02T01:58:25.491Z,0.75
2023-04-02T02:00:58.740Z,0.40
2023-04-02T02:03:25.610Z,0.40
2023-04-02T02:05:52.461Z,0.50
2023-04-02T02:08:27.493Z,0.82
2023-04-02T02:10:54.068Z,0.50
2023-04-02T02:13:21.950Z,0.52
2023-04-02T02:15:49.064Z,0.50
2023-04-02T02:18:19.946Z,0.50
2023-04-02T02:20:47.263Z,0.50
2023-04-02T02:23:14.845Z,0.45
2023-04-02T02:25:41.869Z,0.30
2023-04-02T02:28:16.534Z,0.50
2023-04-02T02:30:49.825Z,0.52
2023-04-02T02:33:23.668Z,0.70
2023-04-02T02:36:21.074Z,0.52
2023-04-02T02:38:54.592Z,0.82
2023-04-02T02:41:26.478Z,0.60
2023-04-02T02:44:08.084Z,0.73
2023-04-02T02:46:39.435Z,0.63
2023-04-02T02:49:07.306Z,0.50
2023-04-02T02:51:49.222Z,0.63
2023-04-02T02:54:19.465Z,0.60
2023-04-02T02:56:52.846Z,0.50
2023-04-02T02:59:20.984Z,0.40
2023-04-02T03:01:48.176Z,0.40
2023-04-02T03:04:22.569Z,0.70
2023-04-02T03:06:52.845Z,0.80
2023-04-02T03:12:36.107Z,0.40
2023-04-02T03:15:13.615Z,0.60
2023-04-02T03:17:53.098Z,0.70
2023-04-02T03:20:28.369Z,0.43
2023-04-02T03:23:08.804Z,0.47
2023-04-02T03:25:43.169Z,0.68
2023-04-02T03:28:17.041Z,0.30
2023-04-02T03:31:02.936Z,0.50
2023-04-02T03:33:40.881Z,0.43
2023-04-02T03:36:25.803Z,0.45
2023-04-02T03:39:14.159Z,0.50
2023-04-02T03:41:46.505Z,0.70
2023-04-02T03:44:44.120Z,0.60
2023-04-02T03:47:18.788Z,0.60
2023-04-02T03:49:54.562Z,0.50
2023-04-02T03:52:31.062Z,0.60
2023-04-02T03:55:01.200Z,0.52
2023-04-02T03:57:37.563Z,0.55
2023-04-02T04:00:27.768Z,0.63
2023-04-02T04:03:00.342Z,0.50
2023-04-02T04:05:34.953Z,0.40
2023-04-02T04:08:06.445Z,0.60
2023-04-02T04:10:34.832Z,0.52
2023-04-02T04:13:08.493Z,0.50
2023-04-02T04:15:49.371Z,0.73
2023-04-02T04:18:46.621Z,0.45
2023-04-02T04:21:29.841Z,0.47
2023-04-02T04:24:03.277Z,0.40
2023-04-02T04:26:35.315Z,0.43
2023-04-02T04:29:54.948Z,0.60
2023-04-02T04:32:32.198Z,0.35
2023-04-02T04:35:07.950Z,0.50
2023-04-02T04:37:39.560Z,0.88
2023-04-02T04:40:18.873Z,0.70
2023-04-02T04:42:48.278Z,0.50
2023-04-02T04:45:50.626Z,0.45
2023-04-02T04:48:27.155Z,0.35
2023-04-02T04:50:59.301Z,0.50
2023-04-02T04:53:28.212Z,0.50
2023-04-02T04:56:18.070Z,0.70
2023-04-02T04:59:12.801Z,0.70
2023-04-02T05:01:52.386Z,0.40
2023-04-02T05:04:24.843Z,0.95
2023-04-02T05:07:09.289Z,0.45
2023-04-02T05:10:00.720Z,0.50
2023-04-02T05:12:44.368Z,0.80
2023-04-02T05:15:16.014Z,0.75
2023-04-02T05:17:51.777Z,0.80
2023-04-02T05:20:37.584Z,0.50
2023-04-02T05:23:07.032Z,0.73
2023-04-02T05:25:33.737Z,0.80
2023-04-02T05:28:11.391Z,0.57
2023-04-02T05:30:52.518Z,0.80
2023-04-02T05:33:23.941Z,0.65
2023-04-02T05:36:09.422Z,0.73
2023-04-02T05:38:39.103Z,0.63
2023-04-02T05:41:24.364Z,0.93
2023-04-02T05:43:59.689Z,0.60
2023-04-02T05:46:32.674Z,0.60
2023-04-02T05:49:00.106Z,0.80
2023-04-02T05:51:36.847Z,0.75
2023-04-02T05:54:12.922Z,0.75
2023-04-02T05:56:46.513Z,0.77
2023-04-02T05:59:31.248Z,0.70
2023-04-02T06:02:08.358Z,0.75
2023-04-02T06:04:56.470Z,0.70
2023-04-02T06:07:28.271Z,0.75
2023-04-02T06:10:00.689Z,0.70
2023-04-02T06:12:35.518Z,0.50
2023-04-02T06:15:02.222Z,0.95
2023-04-02T06:17:29.437Z,1.48
2023-04-02T06:19:58.761Z,1.48
2023-04-02T06:22:40.437Z,1.42
2023-04-02T06:25:17.857Z,0.70
2023-04-02T06:27:46.539Z,1.10
2023-04-02T06:30:24.573Z,0.60
2023-04-02T06:32:51.356Z,0.47
2023-04-02T06:35:18.046Z,0.50
2023-04-02T06:37:47.961Z,0.63
2023-04-02T06:40:53.277Z,1.08
2023-04-02T06:43:46.044Z,0.80
2023-04-02T06:46:20.637Z,1.15
2023-04-02T06:48:51.788Z,0.60
2023-04-02T06:51:22.701Z,0.82
2023-04-02T06:53:51.652Z,0.60
2023-04-02T06:56:20.760Z,0.75
2023-04-02T06:58:47.322Z,0.43
2023-04-02T07:01:27.995Z,0.55
2023-04-02T07:03:55.904Z,0.88
2023-04-02T07:06:22.704Z,0.50
2023-04-02T07:08:49.608Z,1.45
2023-04-02T07:11:21.841Z,1.25
2023-04-02T07:13:49.874Z,0.70
2023-04-02T07:16:25.594Z,0.50
2023-04-02T07:18:53.463Z,1.20
2023-04-02T07:21:19.938Z,1.40
2023-04-02T07:23:46.483Z,2.00
2023-04-02T07:26:15.742Z,1.00
2023-04-02T07:28:42.377Z,1.00
2023-04-02T07:31:20.206Z,0.90
2023-04-02T07:33:47.338Z,0.80
2023-04-02T07:36:23.239Z,0.80
2023-04-02T07:38:50.752Z,0.85
2023-04-02T07:41:19.562Z,1.75
2023-04-02T07:43:46.552Z,2.20
2023-04-02T07:46:19.479Z,0.90
2023-04-02T07:48:47.202Z,0.90
2023-04-02T07:51:25.094Z,0.85
2023-04-02T07:53:55.938Z,0.88
2023-04-02T07:56:24.637Z,0.90
2023-04-02T07:58:51.526Z,0.70
2023-04-02T08:01:26.902Z,0.50
2023-04-02T08:03:55.045Z,3.00
2023-04-02T08:06:22.797Z,2.13
2023-04-02T08:08:49.821Z,1.10
2023-04-02T08:11:16.769Z,0.80
2023-04-02T08:13:43.335Z,0.88
2023-04-02T08:16:10.736Z,0.80
2023-04-02T08:18:37.385Z,0.82
2023-04-02T08:21:07.937Z,1.10
2023-04-02T08:23:35.730Z,0.90
2023-04-02T08:26:02.288Z,0.70
2023-04-02T08:28:28.826Z,0.95
2023-04-02T08:30:55.568Z,1.10
2023-04-02T08:33:22.272Z,1.05
2023-04-02T08:35:50.036Z,1.00
2023-04-02T08:38:19.134Z,0.93
2023-04-02T08:40:49.852Z,0.80
2023-04-02T08:43:40.763Z,0.77
2023-04-02T08:46:19.514Z,0.80
2023-04-02T08:48:55.325Z,0.68
2023-04-02T08:51:25.963Z,0.75
2023-04-02T08:53:56.824Z,0.75
2023-04-02T08:56:31.929Z,0.85
2023-04-02T08:59:03.338Z,0.80
2023-04-02T09:01:51.714Z,1.10
2023-04-02T09:04:22.842Z,0.80
2023-04-02T09:06:53.576Z,0.80
2023-04-02T09:09:22.306Z,1.05
2023-04-02T09:12:00.883Z,0.50
2023-04-02T09:14:54.632Z,1.30
2023-04-02T09:17:23.985Z,0.82
2023-04-02T09:19:54.516Z,0.80
2023-04-02T09:22:24.273Z,0.90
2023-04-02T09:24:52.881Z,0.88
2023-04-02T09:27:23.136Z,1.17
2023-04-02T09:29:55.085Z,0.80
2023-04-02T09:32:46.395Z,1.15
2023-04-02T09:35:26.246Z,0.90
2023-04-02T09:38:18.161Z,0.88
2023-04-02T09:41:04.249Z,0.95
2023-04-02T09:43:35.759Z,0.85
2023-04-02T09:46:12.627Z,0.90
2023-04-02T09:48:53.249Z,1.10
2023-04-02T09:51:25.835Z,0.60
2023-04-02T09:54:04.532Z,1.00
2023-04-02T09:56:33.487Z,0.88
2023-04-02T09:59:24.956Z,1.30
2023-04-02T10:01:54.313Z,1.95
2023-04-02T10:04:44.661Z,1.75
2023-04-02T10:07:41.413Z,1.85
2023-04-02T10:10:23.912Z,0.88
2023-04-02T10:12:57.029Z,1.25
2023-04-02T10:15:33.329Z,0.65
2023-04-02T10:18:12.450Z,1.50
2023-04-02T10:20:50.612Z,1.08
2023-04-02T10:23:19.035Z,1.02
2023-04-02T10:26:03.646Z,4.65
2023-04-02T10:28:57.015Z,1.60
2023-04-02T10:31:29.674Z,1.70
2023-04-02T10:34:03.799Z,56.80
2023-04-02T10:36:54.325Z,37.15
2023-04-02T10:39:36.022Z,34.88
2023-04-02T10:42:15.417Z,8.95
2023-04-02T10:44:41.933Z,8.65
2023-04-02T10:47:21.674Z,5.72
2023-04-02T10:49:57.285Z,5.03
2023-04-02T10:52:31.055Z,3.05
2023-04-02T10:55:06.722Z,2.70
2023-04-02T10:57:42.562Z,3.30
2023-04-02T11:00:12.599Z,2.55
2023-04-02T11:03:15.113Z,2.92
2023-04-02T11:05:50.806Z,5.60
2023-04-02T11:08:40.459Z,5.47
2023-04-02T11:11:17.171Z,3.35
2023-04-02T11:13:58.347Z,3.92
2023-04-02T11:16:25.691Z,2.88
2023-04-02T11:19:17.238Z,4.45
2023-04-02T11:21:58.149Z,4.72
2023-04-02T11:24:37.226Z,6.80
2023-04-02T11:27:09.934Z,4.25
2023-04-02T11:29:37.314Z,2.88
2023-04-02T11:32:21.942Z,1.88
2023-04-02T11:34:53.836Z,1.00
2023-04-02T11:37:29.335Z,0.68
2023-04-02T11:39:59.097Z,0.85
2023-04-02T11:42:30.708Z,2.35
2023-04-02T11:45:20.586Z,4.20
2023-04-02T11:50:43.034Z,2.45
2023-04-02T11:53:12.425Z,2.20
2023-04-02T11:55:40.665Z,2.13
2023-04-02T11:58:13.131Z,3.05
2023-04-02T12:00:59.524Z,2.30
2023-04-02T12:04:03.367Z,1.88
2023-04-02T12:06:42.396Z,2.65
2023-04-02T12:09:33.541Z,1.35
2023-04-02T12:12:15.713Z,2.30
2023-04-02T12:14:48.853Z,1.30
2023-04-02T12:17:27.916Z,0.65
2023-04-02T12:19:58.033Z,0.80
2023-04-02T12:25:40.475Z,0.90
2023-04-02T12:28:09.734Z,0.80
2023-04-02T12:30:38.431Z,0.85
2023-04-02T12:33:37.606Z,0.82
2023-04-02T12:36:18.899Z,0.75
2023-04-02T12:38:51.172Z,0.77
2023-04-02T12:41:30.156Z,0.80
2023-04-02T12:44:02.217Z,0.60
2023-04-02T12:46:30.589Z,0.82
2023-04-02T12:49:07.662Z,0.80
2023-04-02T12:51:36.580Z,0.85
2023-04-02T12:54:03.391Z,0.98
2023-04-02T12:56:29.967Z,1.00
2023-04-02T12:59:00.748Z,0.68
2023-04-02T13:01:32.135Z,0.80
2023-04-02T13:04:06.059Z,1.20
2023-04-02T13:06:35.003Z,0.80
2023-04-02T13:09:04.383Z,0.98
2023-04-02T13:11:34.877Z,1.25
2023-04-02T13:14:03.441Z,0.65
2023-04-02T13:16:38.063Z,1.10
2023-04-02T13:19:17.457Z,1.00
2023-04-02T13:21:45.345Z,1.27
2023-04-02T13:24:20.186Z,1.17
2023-04-02T13:26:48.907Z,0.75
2023-04-02T13:29:35.998Z,1.00
2023-04-02T13:32:05.882Z,1.08
2023-04-02T13:34:32.614Z,0.73
2023-04-02T13:36:59.638Z,1.00
2023-04-02T13:39:27.084Z,0.77
2023-04-02T13:42:02.811Z,0.93
2023-04-02T13:44:34.570Z,1.00
2023-04-02T13:47:01.236Z,0.70
2023-04-02T13:49:28.365Z,1.13
2023-04-02T13:51:59.940Z,1.13
2023-04-02T13:54:40.665Z,3.03
2023-04-02T13:57:07.500Z,2.72
2023-04-02T13:59:34.042Z,2.63
2023-04-02T14:02:09.064Z,2.28
2023-04-02T14:04:41.219Z,1.33
2023-04-02T14:07:52.372Z,1.30
2023-04-02T14:10:51.235Z,3.47
2023-04-02T14:13:26.424Z,2.90
2023-04-02T14:16:11.315Z,1.67
2023-04-02T14:18:46.203Z,1.85
2023-04-02T14:21:33.156Z,2.85
2023-04-02T14:24:17.686Z,4.60
2023-04-02T14:27:12.257Z,3.33
2023-04-02T14:29:46.755Z,2.53
2023-04-02T14:32:37.805Z,2.55
2023-04-02T14:35:24.115Z,5.38
2023-04-02T14:37:51.100Z,3.20
2023-04-02T14:40:40.468Z,5.55
2023-04-02T14:43:14.945Z,8.85
2023-04-02T14:46:02.755Z,5.70
2023-04-02T14:49:01.969Z,7.40
2023-04-02T14:52:05.813Z,15.77
2023-04-02T14:54:55.631Z,6.70
2023-04-02T14:57:23.597Z,2.47
2023-04-02T14:59:57.064Z,2.80
2023-04-02T15:03:05.365Z,2.00
2023-04-02T15:05:41.839Z,2.38
2023-04-02T15:08:29.950Z,1.70
2023-04-02T15:11:08.040Z,1.48
2023-04-02T15:13:53.638Z,1.13
2023-04-02T15:16:23.240Z,1.30
2023-04-02T15:18:56.484Z,1.08
2023-04-02T15:21:23.249Z,1.17
2023-04-02T15:24:11.322Z,0.90
2023-04-02T15:27:00.628Z,1.20
2023-04-02T15:29:30.052Z,1.20
2023-04-02T15:32:20.565Z,1.17
2023-04-02T15:34:55.281Z,1.35
2023-04-02T15:37:33.774Z,1.42
2023-04-02T15:40:27.554Z,1.88
2023-04-02T15:43:16.193Z,1.67
2023-04-02T15:45:51.443Z,1.95
2023-04-02T15:48:39.819Z,2.05
2023-04-02T15:51:27.930Z,2.08
2023-04-02T15:54:00.352Z,1.58
2023-04-02T15:56:48.163Z,2.10
2023-04-02T15:59:36.563Z,2.60
2023-04-02T16:02:46.776Z,1.10
2023-04-02T16:05:34.854Z,0.95
2023-04-02T16:08:18.743Z,0.77
2023-04-02T16:10:45.657Z,0.88
2023-04-02T16:13:34.205Z,1.10
2023-04-02T16:16:03.890Z,0.88
2023-04-02T16:18:52.092Z,1.30
2023-04-02T16:21:24.410Z,1.35
2023-04-02T16:23:51.668Z,1.58
2023-04-02T16:26:37.308Z,1.40
2023-04-02T16:29:56.520Z,1.80
2023-04-02T16:32:46.315Z,1.50
2023-04-02T16:35:41.269Z,1.48
2023-04-02T16:38:21.238Z,1.65
2023-04-02T16:40:57.195Z,3.95
2023-04-02T16:43:45.981Z,3.10
2023-04-02T16:46:31.778Z,2.47
2023-04-02T16:49:29.407Z,1.65
2023-04-02T16:52:08.429Z,1.30
2023-04-02T16:57:18.216Z,1.42
2023-04-02T17:00:01.275Z,1.23
2023-04-02T17:03:01.204Z,1.10
2023-04-02T17:05:50.624Z,1.63
2023-04-02T17:08:23.006Z,1.92
2023-04-02T17:11:01.585Z,1.90
2023-04-02T17:13:41.524Z,1.85
2023-04-02T17:16:20.704Z,1.85
2023-04-02T17:18:57.896Z,1.80
2023-04-02T17:21:26.483Z,1.90
2023-04-02T17:24:11.973Z,1.60
2023-04-02T17:26:40.855Z,1.63
2023-04-02T17:29:13.519Z,2.35
2023-04-02T17:31:42.799Z,2.00
2023-04-02T17:34:15.254Z,2.30
2023-04-02T17:37:04.085Z,2.95
2023-04-02T17:39:41.878Z,2.45
2023-04-02T17:42:17.191Z,2.85
2023-04-02T17:45:06.696Z,2.30
2023-04-02T17:47:46.269Z,2.58
2023-04-02T17:50:12.759Z,2.88
2023-04-02T17:52:48.075Z,2.38
2023-04-02T17:55:27.223Z,2.50
2023-04-02T17:58:01.105Z,2.50
2023-04-02T18:00:45.708Z,2.55
2023-04-02T18:03:40.789Z,2.60
2023-04-02T18:06:15.812Z,2.75
2023-04-02T18:08:54.454Z,2.80
2023-04-02T18:11:39.702Z,2.70
2023-04-02T18:14:30.999Z,2.65
2023-04-02T18:17:08.458Z,3.22
2023-04-02T18:19:44.678Z,2.55
2023-04-02T18:22:34.677Z,3.40
2023-04-02T18:25:24.699Z,2.55
2023-04-02T18:28:04.734Z,2.67
2023-04-02T18:30:41.020Z,2.95
2023-04-02T18:33:41.400Z,2.47
2023-04-02T18:36:11.614Z,2.65
2023-04-02T18:39:02.406Z,2.95
2023-04-02T18:41:55.332Z,2.67
2023-04-02T18:44:31.541Z,2.75
2023-04-02T18:47:03.230Z,3.10
2023-04-02T18:49:36.970Z,3.03
2023-04-02T18:52:14.332Z,2.90
2023-04-02T18:54:46.745Z,3.40
2023-04-02T18:57:20.674Z,2.95
2023-04-02T18:59:55.342Z,2.72
2023-04-02T19:02:37.194Z,3.28
2023-04-02T19:05:17.607Z,3.17
2023-04-02T19:07:46.620Z,3.20
2023-04-02T19:10:34.526Z,2.97
2023-04-02T19:13:01.514Z,3.10
2023-04-02T19:16:05.470Z,3.65
2023-04-02T19:18:38.711Z,2.90
2023-04-02T19:21:32.328Z,3.53
2023-04-02T19:24:17.392Z,3.40
2023-04-02T19:27:03.303Z,3.00
2023-04-02T19:29:38.587Z,3.25
2023-04-02T19:32:13.300Z,3.42
2023-04-02T19:35:01.856Z,3.08
2023-04-02T19:37:42.971Z,2.63
2023-04-02T19:40:32.125Z,3.17
2023-04-02T19:42:58.648Z,3.13
2023-04-02T19:45:33.653Z,3.10
2023-04-02T19:48:08.683Z,3.22
2023-04-02T19:50:35.392Z,2.80
2023-04-02T19:53:01.860Z,3.00
2023-04-02T19:55:28.382Z,3.15
2023-04-02T19:58:08.511Z,3.03
2023-04-02T20:00:39.527Z,3.05
2023-04-02T20:03:06.051Z,3.83
2023-04-02T20:05:32.623Z,3.50
2023-04-02T20:07:59.145Z,3.25
2023-04-02T20:10:25.761Z,3.35
2023-04-02T20:12:52.279Z,3.10
2023-04-02T20:15:20.360Z,3.72
2023-04-02T20:17:46.976Z,3.20
2023-04-02T20:20:13.684Z,3.13
2023-04-02T20:22:40.540Z,3.75
2023-04-02T20:25:07.594Z,3.40
2023-04-02T20:27:34.129Z,3.45
2023-04-02T20:30:00.732Z,3.38
2023-04-02T20:32:27.417Z,3.40
2023-04-02T20:34:54.360Z,3.17
2023-04-02T20:37:21.422Z,4.13
2023-04-02T20:39:48.092Z,3.35
2023-04-02T20:42:14.596Z,3.70
2023-04-02T20:44:41.458Z,3.58
2023-04-02T20:47:08.717Z,3.75
2023-04-02T20:49:35.279Z,4.38
2023-04-02T20:52:01.851Z,4.07
2023-04-02T20:54:28.346Z,3.67
2023-04-02T20:56:54.875Z,3.30
2023-04-02T20:59:21.398Z,4.13
2023-04-02T21:01:48.003Z,3.90
2023-04-02T21:04:14.604Z,4.25
2023-04-02T21:06:41.859Z,3.88
2023-04-02T21:09:14.568Z,4.55
2023-04-02T21:11:42.397Z,4.97
2023-04-02T21:14:09.222Z,4.50
2023-04-02T21:16:35.874Z,4.63
2023-04-02T21:19:05.408Z,4.65
2023-04-02T21:21:32.394Z,4.43
2023-04-02T21:24:01.695Z,5.07
2023-04-02T21:26:30.642Z,4.07
2023-04-02T21:31:27.865Z,4.60
2023-04-02T21:33:57.263Z,4.88
2023-04-02T21:36:26.600Z,4.32
2023-04-02T21:38:59.061Z,3.92
2023-04-02T21:41:28.619Z,4.57
2023-04-02T21:43:57.185Z,3.92
2023-04-02T21:46:27.142Z,4.18
2023-04-02T21:48:55.466Z,4.85
2023-04-02T21:51:24.820Z,4.78
2023-04-02T21:53:54.095Z,4.05
2023-04-02T21:56:23.293Z,3.78
2023-04-02T21:58:50.725Z,4.35
2023-04-02T22:01:26.765Z,4.60
2023-04-02T22:03:56.241Z,4.07
2023-04-02T22:06:23.808Z,4.53
2023-04-02T22:09:01.648Z,4.38
2023-04-02T22:11:38.164Z,3.70
2023-04-02T22:14:05.773Z,5.35
2023-04-02T22:16:33.982Z,4.70
2023-04-02T22:19:02.454Z,3.92
2023-04-02T22:21:30.760Z,4.40
2023-04-02T22:24:00.834Z,4.22
2023-04-02T22:28:54.274Z,4.82
2023-04-02T22:31:23.622Z,4.20
2023-04-02T22:33:51.338Z,4.55
2023-04-02T22:36:18.931Z,3.70
2023-04-02T22:38:45.675Z,3.70
2023-04-02T22:41:18.624Z,4.97
2023-04-02T22:43:46.096Z,3.85
2023-04-02T22:46:15.086Z,4.05
2023-04-02T22:48:42.834Z,4.20
2023-04-02T22:51:11.656Z,4.45
2023-04-02T22:53:39.394Z,4.07
2023-04-02T22:56:07.011Z,3.60
2023-04-02T22:58:34.774Z,3.90
2023-04-02T23:01:10.252Z,4.80
2023-04-02T23:03:36.823Z,4.30
2023-04-02T23:06:07.386Z,4.22
2023-04-02T23:08:35.256Z,4.07
2023-04-02T23:11:07.620Z,4.70
2023-04-02T23:13:35.617Z,4.47
2023-04-02T23:16:03.992Z,3.97
2023-04-02T23:18:38.379Z,4.32
2023-04-02T23:21:06.604Z,4.22
2023-04-02T23:23:34.039Z,3.67
2023-04-02T23:26:08.018Z,3.70
2023-04-02T23:28:35.961Z,4.38
2023-04-02T23:31:03.639Z,4.75
2023-04-02T23:33:30.312Z,4.57
2023-04-02T23:35:57.107Z,4.55
2023-04-02T23:38:24.089Z,3.92
2023-04-02T23:40:50.564Z,4.13
2023-04-02T23:43:17.066Z,4.57
2023-04-02T23:45:48.762Z,3.85
2023-04-02T23:48:16.464Z,4.38
2023-04-02T23:50:44.798Z,3.92
2023-04-02T23:53:11.985Z,3.70
2023-04-02T23:55:39.087Z,4.20
2023-04-02T23:58:05.778Z,4.80
